地図

経路データ

SID SEASON NUMBER BASIN SUBBASIN NAME ISO_TIME NATURE LAT LON WMO_WIND WMO_PRES WMO_AGENCY TRACK_TYPE DIST2LAND LANDFALL IFLAG USA_AGENCY USA_ATCF_ID USA_LAT USA_LON USA_RECORD USA_STATUS USA_WIND USA_PRES USA_SSHS USA_R34_NE USA_R34_SE USA_R34_SW USA_R34_NW USA_R50_NE USA_R50_SE USA_R50_SW USA_R50_NW USA_R64_NE USA_R64_SE USA_R64_SW USA_R64_NW USA_POCI USA_ROCI USA_RMW USA_EYE TOKYO_LAT TOKYO_LON TOKYO_GRADE TOKYO_WIND TOKYO_PRES TOKYO_R50_DIR TOKYO_R50_LONG TOKYO_R50_SHORT TOKYO_R30_DIR TOKYO_R30_LONG TOKYO_R30_SHORT TOKYO_LAND CMA_LAT CMA_LON CMA_CAT CMA_WIND CMA_PRES HKO_LAT HKO_LON HKO_CAT HKO_WIND HKO_PRES NEWDELHI_LAT NEWDELHI_LON NEWDELHI_GRADE NEWDELHI_WIND NEWDELHI_PRES NEWDELHI_CI NEWDELHI_DP NEWDELHI_POCI REUNION_LAT REUNION_LON REUNION_TYPE REUNION_WIND REUNION_PRES REUNION_TNUM REUNION_CI REUNION_RMW REUNION_R34_NE REUNION_R34_SE REUNION_R34_SW REUNION_R34_NW REUNION_R50_NE REUNION_R50_SE REUNION_R50_SW REUNION_R50_NW REUNION_R64_NE REUNION_R64_SE REUNION_R64_SW REUNION_R64_NW BOM_LAT BOM_LON BOM_TYPE BOM_WIND BOM_PRES BOM_TNUM BOM_CI BOM_RMW BOM_R34_NE BOM_R34_SE BOM_R34_SW BOM_R34_NW BOM_R50_NE BOM_R50_SE BOM_R50_SW BOM_R50_NW BOM_R64_NE BOM_R64_SE BOM_R64_SW BOM_R64_NW BOM_ROCI BOM_POCI BOM_EYE BOM_POS_METHOD BOM_PRES_METHOD NADI_LAT NADI_LON NADI_CAT NADI_WIND NADI_PRES WELLINGTON_LAT WELLINGTON_LON WELLINGTON_WIND WELLINGTON_PRES DS824_LAT DS824_LON DS824_STAGE DS824_WIND DS824_PRES TD9636_LAT TD9636_LON TD9636_STAGE TD9636_WIND TD9636_PRES TD9635_LAT TD9635_LON TD9635_WIND TD9635_PRES TD9635_ROCI NEUMANN_LAT NEUMANN_LON NEUMANN_CLASS NEUMANN_WIND NEUMANN_PRES MLC_LAT MLC_LON MLC_CLASS MLC_WIND MLC_PRES USA_GUST BOM_GUST BOM_GUST_PER REUNION_GUST REUNION_GUST_PER USA_SEAHGT USA_SEARAD_NE USA_SEARAD_SE USA_SEARAD_SW USA_SEARAD_NW STORM_SPEED STORM_DIR
1924018S20157 1924 2 SP EA NOT_NAMED 1924-01-17 23:00:00 NR -19.9000 157.300 bom main 684 675 ______O_______ -1 -19.9000 157.300 4 176
1924018S20157 1924 2 SP EA NOT_NAMED 1924-01-18 00:00:00 TS -19.9683 157.306 main 675 666 ______P__O____ -1 -19.9525 157.308 -20.0000 157.300 TC 3 168
1924018S20157 1924 2 SP EA NOT_NAMED 1924-01-18 03:00:00 TS -20.1291 157.330 main 666 649 ______P__P____ -1 -20.1102 157.333 -20.1576 157.325 TC 3 172
1924018S20157 1924 2 SP EA NOT_NAMED 1924-01-18 06:00:00 TS -20.2887 157.355 main 655 647 ______P__P____ -1 -20.2685 157.358 -20.3156 157.350 TC 3 174
1924018S20157 1924 2 SP EA NOT_NAMED 1924-01-18 09:00:00 TS -20.4512 157.379 main 638 630 ______P__P____ -1 -20.4279 157.383 -20.4746 157.375 TC 3 172
1924018S20157 1924 2 SP EA NOT_NAMED 1924-01-18 12:00:00 TS -20.6119 157.404 main 630 613 ______P__P____ -1 -20.5888 157.408 -20.6350 157.400 TC 3 172
1924018S20157 1924 2 SP EA NOT_NAMED 1924-01-18 15:00:00 TS -20.7745 157.429 main 613 605 ______P__P____ -1 -20.7518 157.433 -20.7973 157.425 TC 3 172
1924018S20157 1924 2 SP EA NOT_NAMED 1924-01-18 18:00:00 TS -20.9396 157.454 main 612 596 ______P__P____ -1 -20.9173 157.458 -20.9619 157.450 TC 3 173
1924018S20157 1924 2 SP EA NOT_NAMED 1924-01-18 21:00:00 TS -21.1075 157.479 main 596 588 ______P__P____ -1 -21.0858 157.483 -21.1293 157.475 TC 3 171
1924018S20157 1924 2 SP EA NOT_NAMED 1924-01-18 23:00:00 TS -21.2214 157.496 bom main 588 580 ______O__P____ -1 -21.2000 157.500 -21.2427 157.492 TC 3 173
1924018S20157 1924 2 SP EA NOT_NAMED 1924-01-19 00:00:00 TS -21.2789 157.504 main 580 573 ______P__O____ -1 -21.2577 157.508 -21.3000 157.500 TC 4 169
1924018S20157 1924 2 SP EA NOT_NAMED 1924-01-19 03:00:00 TS -21.4542 157.529 main 565 558 ______P__P____ -1 -21.4338 157.533 -21.4746 157.525 TC 4 173
1924018S20157 1924 2 SP EA NOT_NAMED 1924-01-19 06:00:00 TS -21.6347 157.554 main 566 552 ______P__P____ -1 -21.6152 157.558 -21.6541 157.550 TC 4 174
1924018S20157 1924 2 SP EA NOT_NAMED 1924-01-19 09:00:00 TS -21.8214 157.579 main 552 538 ______P__P____ -1 -21.8031 157.583 -21.8397 157.575 TC 4 173
1924018S20157 1924 2 SP EA NOT_NAMED 1924-01-19 12:00:00 TS -22.0156 157.604 main 538 525 ______P__P____ -1 -21.9987 157.609 -22.0326 157.600 TC 4 174
1924018S20157 1924 2 SP EA NOT_NAMED 1924-01-19 15:00:00 TS -22.2184 157.629 main 525 513 ______P__P____ -1 -22.2030 157.633 -22.2338 157.625 TC 4 175
1924018S20157 1924 2 SP EA NOT_NAMED 1924-01-19 18:00:00 TS -22.4310 157.654 main 522 510 ______P__P____ -1 -22.4174 157.658 -22.4447 157.650 TC 4 174
1924018S20157 1924 2 SP EA NOT_NAMED 1924-01-19 21:00:00 TS -22.6546 157.679 main 505 500 ______P__P____ -1 -22.6429 157.683 -22.6664 157.675 TC 5 174
1924018S20157 1924 2 SP EA NOT_NAMED 1924-01-19 23:00:00 TS -22.8104 157.696 bom main 500 495 ______O__P____ -1 -22.8000 157.700 -22.8207 157.692 TC 5 176
1924018S20157 1924 2 SP EA NOT_NAMED 1924-01-20 00:00:00 TS -22.8913 157.704 main 495 485 ______P__O____ -1 -22.8826 157.708 -22.9000 157.700 TC 5 174
1924018S20157 1924 2 SP EA NOT_NAMED 1924-01-20 03:00:00 TS -23.1466 157.728 main 485 471 ______P__P____ -1 -23.1403 157.733 -23.1528 157.723 TC 5 176
1924018S20157 1924 2 SP EA NOT_NAMED 1924-01-20 06:00:00 TS -23.4146 157.752 main 480 468 ______P__P____ -1 -23.4102 157.758 -23.4191 157.746 TC 6 176
1924018S20157 1924 2 SP EA NOT_NAMED 1924-01-20 09:00:00 TS -23.6919 157.776 main 468 458 ______P__P____ -1 -23.6887 157.783 -23.6951 157.769 TC 6 175
1924018S20157 1924 2 SP EA NOT_NAMED 1924-01-20 12:00:00 TS -23.9750 157.801 main 458 453 ______P__P____ -1 -23.9725 157.808 -23.9775 157.793 TC 6 177
1924018S20157 1924 2 SP EA NOT_NAMED 1924-01-20 15:00:00 TS -24.2603 157.825 main 451 447 ______P__P____ -1 -24.2578 157.833 -24.2627 157.817 TC 6 176
1924018S20157 1924 2 SP EA NOT_NAMED 1924-01-20 18:00:00 TS -24.5442 157.851 main 457 454 ______P__P____ -1 -24.5413 157.858 -24.5472 157.843 TC 6 175
1924018S20157 1924 2 SP EA NOT_NAMED 1924-01-20 21:00:00 TS -24.8234 157.877 main 454 453 ______P__P____ -1 -24.8194 157.883 -24.8275 157.870 TC 6 174
1924018S20157 1924 2 SP EA NOT_NAMED 1924-01-20 23:00:00 TS -25.0051 157.895 989 bom main 453 453 ______O__P____ -1 -25.0000 157.900 989 4 -25.0102 157.890 TC 5 176
1924018S20157 1924 2 SP EA NOT_NAMED 1924-01-21 00:00:00 TS -25.0881 157.899 main 453 453 ______P__O____ -1 -25.0762 157.897 -25.1000 157.900 TC 50 989 5 0
1924018S20157 1924 2 SP EA NOT_NAMED 1924-01-21 03:00:00 TS -25.3092 157.892 main 453 453 ______P__P____ -1 -25.2963 157.884 -25.3221 157.900 TC 4 0
1924018S20157 1924 2 SP EA NOT_NAMED 1924-01-21 06:00:00 TS -25.5216 157.884 main 455 455 ______P__P____ -1 -25.5091 157.869 -25.5342 157.898 TC 4 0
1924018S20157 1924 2 SP EA NOT_NAMED 1924-01-21 09:00:00 TS -25.7323 157.880 main 458 458 ______P__P____ -1 -25.7211 157.859 -25.7436 157.901 TC 4 0
1924018S20157 1924 2 SP EA NOT_NAMED 1924-01-21 12:00:00 TS -25.9483 157.888 main 462 462 ______P__P____ -1 -25.9392 157.861 -25.9574 157.914 TC 4 175
1924018S20157 1924 2 SP EA NOT_NAMED 1924-01-21 15:00:00 TS -26.1765 157.914 main 470 469 ______P__P____ -1 -26.1702 157.884 -26.1827 157.944 TC 5 172
1924018S20157 1924 2 SP EA NOT_NAMED 1924-01-21 18:00:00 TS -26.4238 157.966 main 478 464 ______P__P____ -1 -26.4207 157.934 -26.4269 157.997 TC 5 167
1924018S20157 1924 2 SP EA NOT_NAMED 1924-01-21 21:00:00 TS -26.6972 158.050 main 464 464 ______P__P____ -1 -26.6975 158.020 -26.6969 158.080 TC 6 163
1924018S20157 1924 2 SP EA NOT_NAMED 1924-01-21 23:00:00 TS -26.8974 158.128 bom main 466 462 ______O__P____ -1 -26.9000 158.100 -26.8949 158.156 TC 7 160
1924018S20157 1924 2 SP EA NOT_NAMED 1924-01-22 00:00:00 TS -27.0068 158.173 main 472 465 ______P__O____ -1 -27.0136 158.146 -27.0000 158.200 TC 7 158
1924018S20157 1924 2 SP EA NOT_NAMED 1924-01-22 03:00:00 TS -27.3568 158.335 main 470 470 ______P__P____ -1 -27.3734 158.311 -27.3403 158.360 TC 8 157
1924018S20157 1924 2 SP EA NOT_NAMED 1924-01-22 06:00:00 TS -27.7334 158.529 main 483 482 ______P__P____ -1 -27.7506 158.510 -27.7105 158.554 TC 9 154
1924018S20157 1924 2 SP EA NOT_NAMED 1924-01-22 09:00:00 TS -28.1207 158.751 main 509 508 ______P__P____ -1 -28.1309 158.742 -28.1004 158.771 TC 9 152
1924018S20157 1924 2 SP EA NOT_NAMED 1924-01-22 12:00:00 TS -28.5000 159.000 bom main 526 526 ______O__O____ -1 -28.5000 159.000 -28.5000 159.000 TC 9 147
1924018S20157 1924 2 SP EA NOT_NAMED 1924-01-22 15:00:00 NR -28.8472 159.281 main 554 554 ______P_______ -1 -28.8472 159.281 TC 8 143
1924018S20157 1924 2 SP EA NOT_NAMED 1924-01-22 18:00:00 NR -29.1758 159.580 main 583 583 ______P_______ -1 -29.1758 159.580 TC 8 141
1924018S20157 1924 2 SP EA NOT_NAMED 1924-01-22 21:00:00 NR -29.4923 159.890 main 614 614 ______P_______ -1 -29.4923 159.890 TC 8 139
1924018S20157 1924 2 SP MM NOT_NAMED 1924-01-22 23:00:00 NR -29.7000 160.100 bom main 635 ______O_______ -1 -29.7000 160.100 TC 8 139

デジタル台風データ・検索

IBTrACS Databaseについて

本データベースは、米国NOAAが公開する1842年以降の世界の熱帯低気圧のベストトラックデータアーカイブInternational Best Track Archive for Climate Stewardship (IBTrACS)を、ウェブで閲覧しやすい形式に変換したものです。

最終更新日:2021-10-08